Terminal Aerodrome Forecast
Issued by NWS

Home | Current Version | Previous Version | Text Only | Print | Product List | Glossary On
Versions: 1 2 3 4 5 6 7 8 9 10 11 12 13
000
FTUS41 KCAR 221700 RRA
TAFPQI
TAF
KPQI 221744Z 2218/2318 24010G17KT P6SM SCT060
     FM230000 23007KT P6SM SCT200
     FM230300 VRB03KT P6SM FEW250
     FM231000 20007KT P6SM SCT250
     FM231400 22010G17KT P6SM SCT045 BKN200
     FM231700 21010G17KT P6SM VCTS SCT035CB OVC120
      AMD LTD TO CLD VIS AND WIND=

USA.gov is the U.S. government's official web portal to all federal, state and local government web resources and services.